createdAt,value
2017-09-19T00:01:34.107Z,93.87
2017-09-19T00:04:01.876Z,93.78
2017-09-19T00:06:29.517Z,93.84
2017-09-19T00:08:57.122Z,93.77
2017-09-19T00:11:24.801Z,93.82
2017-09-19T00:13:52.402Z,93.75
2017-09-19T00:16:20.028Z,93.79
2017-09-19T00:18:47.651Z,93.72
2017-09-19T00:21:15.286Z,93.56
2017-09-19T00:23:42.934Z,93.72
2017-09-19T00:26:10.610Z,93.83
2017-09-19T00:28:38.222Z,93.86
2017-09-19T00:31:05.863Z,94.16
2017-09-19T00:33:33.474Z,94.11
2017-09-19T00:36:01.251Z,94.01
2017-09-19T00:38:28.854Z,93.61
2017-09-19T00:40:57.528Z,93.58
2017-09-19T00:43:25.702Z,93.34
2017-09-19T00:45:53.436Z,93.16
2017-09-19T00:48:21.212Z,93.33
2017-09-19T00:50:48.950Z,93.45
2017-09-19T00:53:16.643Z,93.18
2017-09-19T00:55:44.256Z,93.21
2017-09-19T00:58:11.995Z,93.57
2017-09-19T01:00:39.738Z,93.47
2017-09-19T01:03:07.416Z,93.54
2017-09-19T01:05:35.094Z,93.61
2017-09-19T01:08:02.744Z,93.75
2017-09-19T01:10:30.359Z,93.94
2017-09-19T01:12:57.978Z,93.96
2017-09-19T01:15:25.594Z,93.95
2017-09-19T01:17:53.239Z,94.03
2017-09-19T01:20:20.834Z,94.09
2017-09-19T01:22:48.459Z,94.14
2017-09-19T01:25:16.038Z,94.17
2017-09-19T01:27:43.751Z,94.13
2017-09-19T01:30:11.369Z,93.99
2017-09-19T01:32:39.038Z,93.99
2017-09-19T01:35:06.663Z,93.70
2017-09-19T01:37:34.341Z,93.59
2017-09-19T01:40:01.939Z,93.68
2017-09-19T01:42:29.615Z,93.86
2017-09-19T01:44:57.259Z,93.85
2017-09-19T01:47:24.862Z,93.95
2017-09-19T01:49:52.507Z,93.83
2017-09-19T01:52:20.153Z,93.76
2017-09-19T01:54:47.776Z,93.76
2017-09-19T01:57:15.390Z,93.72
2017-09-19T01:59:43.040Z,93.79
2017-09-19T02:02:10.642Z,93.55
2017-09-19T02:04:38.348Z,93.37
2017-09-19T02:07:06.044Z,93.64
2017-09-19T02:09:33.689Z,93.69
2017-09-19T02:12:01.312Z,93.60
2017-09-19T02:14:28.968Z,93.62
2017-09-19T02:16:56.568Z,93.26
2017-09-19T02:19:24.233Z,93.38
2017-09-19T02:21:51.854Z,93.47
2017-09-19T02:24:19.462Z,93.65
2017-09-19T02:26:47.111Z,93.77
2017-09-19T02:29:14.711Z,93.68
2017-09-19T02:31:42.352Z,93.70
2017-09-19T02:34:09.967Z,93.56
2017-09-19T02:36:37.926Z,93.49
2017-09-19T02:39:06.168Z,93.44
2017-09-19T02:41:34.031Z,93.39
2017-09-19T02:44:01.842Z,93.32
2017-09-19T02:46:30.013Z,93.30
2017-09-19T02:48:57.982Z,93.38
2017-09-19T02:51:25.851Z,93.24
2017-09-19T02:53:53.615Z,93.00
2017-09-19T02:56:22.402Z,93.20
2017-09-19T02:58:50.470Z,93.38
2017-09-19T03:01:18.119Z,93.50
2017-09-19T03:03:45.730Z,93.72
2017-09-19T03:06:13.383Z,93.69
2017-09-19T03:08:40.991Z,93.51
2017-09-19T03:11:08.619Z,93.51
2017-09-19T03:13:36.259Z,93.71
2017-09-19T03:16:03.882Z,93.75
2017-09-19T03:18:31.495Z,93.63
2017-09-19T03:20:59.135Z,93.68
2017-09-19T03:23:26.763Z,93.71
2017-09-19T03:25:54.390Z,93.57
2017-09-19T03:28:21.995Z,93.58
2017-09-19T03:30:49.815Z,93.56
2017-09-19T03:33:18.104Z,93.43
2017-09-19T03:35:46.383Z,93.41
2017-09-19T03:38:14.104Z,93.38
2017-09-19T03:40:43.257Z,93.51
2017-09-19T03:43:11.676Z,93.53
2017-09-19T03:45:40.526Z,93.75
2017-09-19T03:48:08.258Z,93.86
2017-09-19T03:50:37.185Z,93.81
2017-09-19T03:53:06.977Z,93.70
2017-09-19T03:55:34.884Z,93.66
2017-09-19T03:58:02.746Z,93.85
2017-09-19T04:00:30.600Z,93.55
2017-09-19T04:02:58.572Z,93.47
2017-09-19T04:05:26.643Z,93.54
2017-09-19T04:07:57.483Z,93.59
2017-09-19T04:10:25.127Z,93.70
2017-09-19T04:12:52.755Z,93.81
2017-09-19T04:15:20.359Z,93.83
2017-09-19T04:17:48.106Z,93.92
2017-09-19T04:20:15.722Z,93.87
2017-09-19T04:22:43.347Z,93.86
2017-09-19T04:25:11.041Z,93.87
2017-09-19T04:27:38.640Z,93.83
2017-09-19T04:30:06.299Z,93.84
2017-09-19T04:32:33.931Z,93.85
2017-09-19T04:35:01.592Z,93.61
2017-09-19T04:37:29.215Z,93.82
2017-09-19T04:39:56.855Z,93.63
2017-09-19T04:42:24.473Z,93.75
2017-09-19T04:44:52.105Z,93.81
2017-09-19T04:47:19.715Z,93.60
2017-09-19T04:49:47.364Z,93.67
2017-09-19T04:52:15.015Z,93.46
2017-09-19T04:54:42.651Z,93.47
2017-09-19T04:57:10.269Z,93.29
2017-09-19T04:59:37.891Z,93.22
2017-09-19T05:02:05.492Z,93.23
2017-09-19T05:04:33.147Z,93.12
2017-09-19T05:07:00.756Z,93.12
2017-09-19T05:09:28.459Z,93.02
2017-09-19T05:11:56.991Z,93.07
2017-09-19T05:14:24.899Z,93.19
2017-09-19T05:16:53.123Z,93.06
2017-09-19T05:19:32.050Z,93.09
2017-09-19T05:22:01.304Z,93.14
2017-09-19T05:24:34.840Z,93.25
2017-09-19T05:27:02.511Z,93.25
2017-09-19T05:29:30.138Z,93.07
2017-09-19T05:31:57.833Z,93.06
2017-09-19T05:34:25.500Z,93.24
2017-09-19T05:36:53.134Z,93.23
2017-09-19T05:39:20.826Z,93.39
2017-09-19T05:41:48.588Z,93.39
2017-09-19T05:44:16.223Z,93.50
2017-09-19T05:46:43.903Z,93.62
2017-09-19T05:49:11.613Z,93.62
2017-09-19T05:51:39.401Z,93.27
2017-09-19T05:54:07.013Z,93.24
2017-09-19T05:56:34.671Z,93.38
2017-09-19T05:59:02.303Z,93.19
2017-09-19T06:01:29.979Z,93.36
2017-09-19T06:03:57.590Z,93.34
2017-09-19T06:06:25.266Z,93.23
2017-09-19T06:09:04.555Z,93.34
2017-09-19T06:11:32.224Z,93.38
2017-09-19T06:13:59.844Z,93.25
2017-09-19T06:16:27.542Z,93.22
2017-09-19T06:18:55.158Z,93.48
2017-09-19T06:21:22.817Z,93.93
2017-09-19T06:23:50.466Z,94.04
2017-09-19T06:26:18.332Z,93.87
2017-09-19T06:28:45.955Z,93.61
2017-09-19T06:31:13.632Z,93.84
2017-09-19T06:33:41.285Z,94.08
2017-09-19T06:36:09.082Z,94.11
2017-09-19T06:38:36.737Z,93.97
2017-09-19T06:41:04.377Z,93.94
2017-09-19T06:43:32.039Z,93.88
2017-09-19T06:45:59.710Z,94.07
2017-09-19T06:48:27.419Z,93.95
2017-09-19T06:50:55.075Z,93.98
2017-09-19T06:53:22.745Z,93.92
2017-09-19T06:55:50.398Z,94.07
2017-09-19T06:58:18.040Z,94.26
2017-09-19T07:00:45.748Z,94.39
2017-09-19T07:03:13.374Z,94.53
2017-09-19T07:05:41.025Z,94.83
2017-09-19T07:08:08.661Z,95.01
2017-09-19T07:10:36.302Z,95.31
2017-09-19T07:13:03.903Z,95.66
2017-09-19T07:15:31.592Z,96.10
2017-09-19T07:17:59.186Z,95.96
2017-09-19T07:20:26.826Z,96.24
2017-09-19T07:22:54.463Z,96.55
2017-09-19T07:25:22.151Z,96.56
2017-09-19T07:27:49.783Z,96.27
2017-09-19T07:30:17.473Z,96.25
2017-09-19T07:32:45.139Z,96.47
2017-09-19T07:35:12.782Z,96.28
2017-09-19T07:37:40.396Z,95.92
2017-09-19T07:40:08.090Z,95.80
2017-09-19T07:42:36.339Z,95.22
2017-09-19T07:45:04.010Z,94.88
2017-09-19T07:47:31.664Z,94.63
2017-09-19T07:49:59.350Z,94.46
2017-09-19T07:52:26.976Z,94.53
2017-09-19T07:54:54.635Z,94.63
2017-09-19T07:57:22.339Z,94.58
2017-09-19T07:59:50.050Z,94.76
2017-09-19T08:02:17.678Z,94.73
2017-09-19T08:04:45.407Z,94.75
2017-09-19T08:07:13.018Z,94.75
2017-09-19T08:09:40.699Z,94.35
2017-09-19T08:12:08.367Z,94.54
2017-09-19T08:14:35.986Z,94.48
2017-09-19T08:17:05.294Z,94.25
2017-09-19T08:19:32.942Z,94.65
2017-09-19T08:22:00.571Z,94.99
2017-09-19T08:24:28.180Z,94.51
2017-09-19T08:26:55.879Z,94.05
2017-09-19T08:29:23.508Z,94.10
2017-09-19T08:31:51.303Z,93.95
2017-09-19T08:34:18.917Z,94.07
2017-09-19T08:36:46.552Z,94.32
2017-09-19T08:39:14.160Z,94.41
2017-09-19T08:41:41.802Z,94.60
2017-09-19T08:44:09.399Z,94.25
2017-09-19T08:46:37.043Z,94.86
2017-09-19T08:49:04.653Z,94.21
2017-09-19T08:51:32.287Z,94.00
2017-09-19T08:53:59.894Z,93.73
2017-09-19T08:56:27.535Z,93.77
2017-09-19T08:58:55.138Z,94.23
2017-09-19T09:01:22.758Z,93.96
2017-09-19T09:03:50.362Z,93.33
2017-09-19T09:06:18.017Z,93.22
2017-09-19T09:08:45.622Z,92.59
2017-09-19T09:11:13.267Z,92.32
2017-09-19T09:13:40.866Z,92.68
2017-09-19T09:16:08.506Z,92.30
2017-09-19T09:18:36.110Z,92.28
2017-09-19T09:21:03.727Z,93.23
2017-09-19T09:23:31.428Z,92.68
2017-09-19T09:25:59.039Z,92.31
2017-09-19T09:28:26.671Z,91.63
2017-09-19T09:30:54.255Z,91.74
2017-09-19T09:33:21.895Z,92.19
2017-09-19T09:35:49.511Z,92.01
2017-09-19T09:38:17.322Z,91.28
2017-09-19T09:40:44.975Z,91.77
2017-09-19T09:43:12.639Z,91.71
2017-09-19T09:45:40.287Z,90.95
2017-09-19T09:48:07.893Z,91.18
2017-09-19T09:50:35.524Z,91.66
2017-09-19T09:53:03.179Z,90.10
2017-09-19T09:55:30.806Z,89.30
2017-09-19T09:57:58.442Z,87.75
2017-09-19T10:00:26.075Z,87.30
2017-09-19T10:02:53.680Z,87.13
2017-09-19T10:05:21.339Z,88.30
2017-09-19T10:07:48.949Z,89.73
2017-09-19T10:10:16.598Z,88.48
2017-09-19T10:12:44.206Z,88.51
2017-09-19T10:15:11.854Z,90.89
2017-09-19T10:17:39.446Z,91.19
2017-09-19T10:20:07.122Z,91.95
2017-09-19T10:22:34.729Z,91.36
2017-09-19T10:25:02.383Z,91.56
2017-09-19T10:27:29.989Z,92.20
2017-09-19T10:29:57.618Z,93.10
2017-09-19T10:32:25.227Z,91.16
2017-09-19T10:34:52.875Z,91.12
2017-09-19T10:37:20.617Z,91.34
2017-09-19T10:39:48.242Z,90.70
2017-09-19T10:42:15.851Z,90.83
2017-09-19T10:44:43.588Z,90.93
2017-09-19T10:47:11.180Z,91.29
2017-09-19T10:49:38.827Z,91.45
2017-09-19T10:52:06.470Z,91.75
2017-09-19T10:54:34.169Z,90.97
2017-09-19T10:57:01.805Z,90.96
2017-09-19T10:59:29.423Z,89.68
2017-09-19T11:01:57.050Z,88.09
2017-09-19T11:04:24.648Z,87.01
2017-09-19T11:06:52.281Z,87.18
2017-09-19T11:09:19.862Z,85.02
2017-09-19T11:11:47.517Z,83.18
2017-09-19T11:14:15.103Z,83.85
2017-09-19T11:16:42.733Z,81.33
2017-09-19T11:19:10.351Z,82.75
2017-09-19T11:21:37.983Z,81.00
2017-09-19T11:24:05.606Z,82.19
2017-09-19T11:26:33.238Z,81.23
2017-09-19T11:29:00.844Z,82.60
2017-09-19T11:31:28.483Z,85.54
2017-09-19T11:33:56.091Z,86.09
2017-09-19T11:36:23.777Z,86.55
2017-09-19T11:38:51.390Z,87.82
2017-09-19T11:41:19.030Z,88.87
2017-09-19T11:43:46.631Z,88.96
2017-09-19T11:46:14.278Z,89.14
2017-09-19T11:48:41.890Z,87.77
2017-09-19T11:51:09.535Z,86.08
2017-09-19T11:53:37.155Z,85.67
2017-09-19T11:56:04.782Z,86.04
2017-09-19T11:58:32.395Z,86.52
2017-09-19T12:01:00.046Z,86.61
2017-09-19T12:03:27.656Z,87.54
2017-09-19T12:05:55.268Z,86.63
2017-09-19T12:08:22.900Z,86.97
2017-09-19T12:10:50.495Z,87.53
2017-09-19T12:13:18.243Z,87.54
2017-09-19T12:15:45.919Z,87.84
2017-09-19T12:18:13.534Z,87.88
2017-09-19T12:20:41.195Z,88.20
2017-09-19T12:23:08.812Z,87.80
2017-09-19T12:25:36.438Z,87.60
2017-09-19T12:28:04.067Z,87.63
2017-09-19T12:30:31.686Z,88.28
2017-09-19T12:32:59.319Z,89.58
2017-09-19T12:35:26.935Z,88.21
2017-09-19T12:37:54.560Z,87.19
2017-09-19T12:40:22.172Z,87.61
2017-09-19T12:42:49.827Z,87.40
2017-09-19T12:45:17.459Z,86.17
2017-09-19T12:47:45.099Z,86.29
2017-09-19T12:50:12.725Z,85.89
2017-09-19T12:52:40.401Z,85.81
2017-09-19T12:55:08.047Z,85.91
2017-09-19T12:57:35.694Z,86.28
2017-09-19T13:00:03.294Z,85.47
2017-09-19T13:02:30.954Z,85.47
2017-09-19T13:04:58.575Z,86.12
2017-09-19T13:07:26.211Z,84.90
2017-09-19T13:09:53.815Z,85.03
2017-09-19T13:12:21.455Z,85.11
2017-09-19T13:14:49.061Z,84.38
2017-09-19T13:17:16.722Z,80.49
2017-09-19T13:19:44.379Z,78.73
2017-09-19T13:22:11.976Z,77.33
2017-09-19T13:24:39.616Z,74.87
2017-09-19T13:27:07.230Z,74.03
2017-09-19T13:29:34.927Z,73.72
2017-09-19T13:32:14.056Z,75.54
2017-09-19T13:34:41.711Z,77.01
2017-09-19T13:37:09.315Z,78.34
2017-09-19T13:39:36.952Z,79.19
2017-09-19T13:42:04.558Z,79.47
2017-09-19T13:44:32.206Z,78.07
2017-09-19T13:46:59.798Z,79.22
2017-09-19T13:49:27.462Z,80.16
2017-09-19T13:51:55.043Z,79.58
2017-09-19T13:54:22.648Z,80.16
2017-09-19T13:56:50.270Z,80.65
2017-09-19T13:59:17.891Z,80.50
2017-09-19T14:01:45.547Z,80.93
2017-09-19T14:04:13.249Z,81.06
2017-09-19T14:06:40.883Z,81.57
2017-09-19T14:09:08.542Z,81.36
2017-09-19T14:11:36.208Z,80.30
2017-09-19T14:14:03.806Z,78.06
2017-09-19T14:16:31.409Z,75.25
2017-09-19T14:18:59.035Z,70.27
2017-09-19T14:21:26.646Z,70.57
2017-09-19T14:23:54.340Z,70.55
2017-09-19T14:26:21.953Z,69.99
2017-09-19T14:28:49.588Z,71.26
2017-09-19T14:31:17.193Z,72.46
2017-09-19T14:33:44.814Z,73.02
2017-09-19T14:36:12.426Z,73.55
2017-09-19T14:38:40.078Z,73.13
2017-09-19T14:41:07.683Z,72.32
2017-09-19T14:43:35.311Z,72.98
2017-09-19T14:46:02.940Z,73.90
2017-09-19T14:48:30.570Z,74.67
2017-09-19T14:50:58.168Z,75.32
2017-09-19T14:53:25.821Z,76.02
2017-09-19T14:55:53.427Z,76.17
2017-09-19T14:58:21.034Z,76.55
2017-09-19T15:00:48.662Z,76.70
2017-09-19T15:03:16.270Z,77.37
2017-09-19T15:05:43.903Z,77.85
2017-09-19T15:08:11.506Z,78.36
2017-09-19T15:10:39.273Z,78.71
2017-09-19T15:13:06.887Z,76.67
2017-09-19T15:15:34.532Z,76.43
2017-09-19T15:18:02.138Z,75.97
2017-09-19T15:20:29.796Z,75.62
2017-09-19T15:22:57.422Z,75.98
2017-09-19T15:25:25.065Z,75.60
2017-09-19T15:27:52.764Z,74.35
2017-09-19T15:30:20.522Z,71.90
2017-09-19T15:32:48.122Z,71.23
2017-09-19T15:35:15.770Z,69.81
2017-09-19T15:37:43.392Z,68.95
2017-09-19T15:40:10.984Z,68.49
2017-09-19T15:42:38.632Z,68.26
2017-09-19T15:45:06.267Z,67.50
2017-09-19T15:47:33.950Z,66.98
2017-09-19T15:50:01.566Z,66.91
2017-09-19T15:52:29.226Z,67.03
2017-09-19T15:54:56.861Z,66.05
2017-09-19T15:57:24.490Z,65.97
2017-09-19T15:59:52.094Z,65.41
2017-09-19T16:02:19.714Z,65.53
2017-09-19T16:04:47.318Z,64.79
2017-09-19T16:07:14.955Z,65.34
2017-09-19T16:09:42.582Z,65.50
2017-09-19T16:12:10.209Z,66.27
2017-09-19T16:14:37.808Z,67.38
2017-09-19T16:17:05.463Z,68.90
2017-09-19T16:19:33.130Z,69.97
2017-09-19T16:22:00.836Z,70.66
2017-09-19T16:24:28.456Z,71.04
2017-09-19T16:26:56.083Z,71.89
2017-09-19T16:29:23.730Z,72.87
2017-09-19T16:31:51.383Z,72.67
2017-09-19T16:34:19.068Z,72.42
2017-09-19T16:36:46.706Z,72.46
2017-09-19T16:39:14.338Z,71.74
2017-09-19T16:41:42.060Z,71.21
2017-09-19T16:44:09.670Z,70.59
2017-09-19T16:46:37.270Z,70.29
2017-09-19T16:49:04.898Z,69.85
2017-09-19T16:51:32.543Z,70.20
2017-09-19T16:54:00.192Z,71.60
2017-09-19T16:56:27.807Z,71.15
2017-09-19T16:58:55.457Z,71.67
2017-09-19T17:01:23.074Z,71.73
2017-09-19T17:03:50.699Z,71.95
2017-09-19T17:06:18.305Z,71.74
2017-09-19T17:08:45.967Z,71.87
2017-09-19T17:11:13.577Z,72.41
2017-09-19T17:13:41.203Z,72.90
2017-09-19T17:16:08.826Z,73.17
2017-09-19T17:18:36.469Z,73.89
2017-09-19T17:21:04.085Z,74.27
2017-09-19T17:23:31.722Z,74.95
2017-09-19T17:25:59.326Z,75.17
2017-09-19T17:28:27.049Z,75.45
2017-09-19T17:30:54.718Z,75.82
2017-09-19T17:33:22.364Z,76.08
2017-09-19T17:35:49.981Z,76.19
2017-09-19T17:38:17.742Z,75.74
2017-09-19T17:40:45.402Z,76.08
2017-09-19T17:43:13.047Z,76.35
2017-09-19T17:45:40.673Z,76.91
2017-09-19T17:48:08.336Z,77.11
2017-09-19T17:50:36.039Z,77.49
2017-09-19T17:53:03.683Z,77.65
2017-09-19T17:55:31.372Z,77.48
2017-09-19T17:57:59.017Z,77.74
2017-09-19T18:00:26.660Z,77.51
2017-09-19T18:02:54.371Z,78.04
2017-09-19T18:05:22.031Z,80.20
2017-09-19T18:07:50.215Z,82.27
2017-09-19T18:10:17.875Z,78.81
2017-09-19T18:12:45.492Z,77.83
2017-09-19T18:15:13.152Z,77.74
2017-09-19T18:17:41.127Z,78.31
2017-09-19T18:20:08.831Z,78.49
2017-09-19T18:22:37.242Z,78.85
2017-09-19T18:25:04.908Z,79.14
2017-09-19T18:27:32.676Z,79.46
2017-09-19T18:30:00.335Z,79.74
2017-09-19T18:32:28.092Z,80.10
2017-09-19T18:34:55.800Z,80.45
2017-09-19T18:37:23.426Z,80.86
2017-09-19T18:39:51.087Z,81.06
2017-09-19T18:42:18.774Z,81.23
2017-09-19T18:44:46.428Z,81.28
2017-09-19T18:47:14.035Z,81.27
2017-09-19T18:49:41.675Z,81.18
2017-09-19T18:52:09.299Z,81.31
2017-09-19T18:54:36.973Z,81.57
2017-09-19T18:57:04.627Z,82.20
2017-09-19T18:59:32.286Z,82.43
2017-09-19T19:01:59.917Z,82.21
2017-09-19T19:04:27.602Z,82.31
2017-09-19T19:06:55.400Z,82.31
2017-09-19T19:09:23.052Z,82.31
2017-09-19T19:11:50.708Z,82.25
2017-09-19T19:14:18.559Z,81.94
2017-09-19T19:16:46.162Z,81.87
2017-09-19T19:19:13.820Z,82.08
2017-09-19T19:21:41.438Z,82.51
2017-09-19T19:24:09.247Z,82.24
2017-09-19T19:26:36.880Z,82.01
2017-09-19T19:29:04.915Z,81.47
2017-09-19T19:31:32.617Z,81.76
2017-09-19T19:34:00.353Z,81.94
2017-09-19T19:36:28.002Z,81.75
2017-09-19T19:38:55.723Z,82.04
2017-09-19T19:41:23.343Z,82.16
2017-09-19T19:43:51.067Z,82.73
2017-09-19T19:46:18.715Z,83.24
2017-09-19T19:48:46.520Z,84.02
2017-09-19T19:51:14.159Z,84.68
2017-09-19T19:53:41.800Z,84.73
2017-09-19T19:56:09.447Z,84.68
2017-09-19T19:58:37.161Z,84.66
2017-09-19T20:01:04.792Z,84.38
2017-09-19T20:03:32.438Z,84.58
2017-09-19T20:06:00.103Z,84.70
2017-09-19T20:08:27.751Z,85.45
2017-09-19T20:10:55.407Z,84.58
2017-09-19T20:13:23.321Z,84.64
2017-09-19T20:15:50.982Z,84.70
2017-09-19T20:18:18.640Z,84.78
2017-09-19T20:20:46.312Z,85.02
2017-09-19T20:23:14.112Z,85.16
2017-09-19T20:25:41.730Z,85.21
2017-09-19T20:28:09.410Z,85.40
2017-09-19T20:30:37.036Z,85.42
2017-09-19T20:33:04.695Z,85.52
2017-09-19T20:35:32.403Z,85.59
2017-09-19T20:38:00.110Z,85.42
2017-09-19T20:40:27.786Z,85.30
2017-09-19T20:42:55.419Z,85.60
2017-09-19T20:45:23.061Z,85.87
2017-09-19T20:47:50.714Z,85.50
2017-09-19T20:50:18.385Z,85.45
2017-09-19T20:52:46.007Z,85.61
2017-09-19T20:55:13.613Z,85.70
2017-09-19T20:57:41.256Z,86.14
2017-09-19T21:00:09.003Z,86.94
2017-09-19T21:02:36.613Z,87.14
2017-09-19T21:05:10.008Z,87.15
2017-09-19T21:07:43.203Z,86.84
2017-09-19T21:10:16.355Z,86.27
2017-09-19T21:12:49.594Z,86.32
2017-09-19T21:15:22.871Z,86.18
2017-09-19T21:17:56.072Z,86.34
2017-09-19T21:20:23.175Z,86.34
2017-09-19T21:22:50.850Z,86.35
2017-09-19T21:25:18.592Z,86.11
2017-09-19T21:27:46.198Z,85.73
2017-09-19T21:30:13.865Z,85.67
2017-09-19T21:32:41.484Z,85.71
2017-09-19T21:35:09.256Z,86.28
2017-09-19T21:37:36.874Z,86.30
2017-09-19T21:40:04.556Z,86.33
2017-09-19T21:42:32.200Z,86.59
2017-09-19T21:44:59.835Z,87.72
2017-09-19T21:47:27.571Z,87.90
2017-09-19T21:49:55.200Z,87.73
2017-09-19T21:52:22.824Z,87.54
2017-09-19T21:54:50.466Z,87.41
2017-09-19T21:57:18.090Z,86.88
2017-09-19T21:59:45.730Z,87.21
2017-09-19T22:02:13.371Z,87.76
2017-09-19T22:04:41.010Z,88.49
2017-09-19T22:07:08.672Z,89.13
2017-09-19T22:09:36.331Z,89.34
2017-09-19T22:12:03.938Z,89.55
2017-09-19T22:14:31.563Z,90.21
2017-09-19T22:16:59.194Z,90.36
2017-09-19T22:19:26.899Z,90.38
2017-09-19T22:21:54.514Z,90.49
2017-09-19T22:24:22.154Z,90.39
2017-09-19T22:26:49.773Z,90.55
2017-09-19T22:29:17.391Z,90.86
2017-09-19T22:31:45.022Z,91.13
2017-09-19T22:34:12.637Z,91.38
2017-09-19T22:36:40.274Z,91.62
2017-09-19T22:39:07.885Z,92.11
2017-09-19T22:41:35.527Z,92.33
2017-09-19T22:44:03.130Z,92.36
2017-09-19T22:46:30.765Z,92.38
2017-09-19T22:48:58.416Z,92.21
2017-09-19T22:51:26.033Z,92.40
2017-09-19T22:53:53.684Z,92.36
2017-09-19T22:56:21.295Z,92.36
2017-09-19T22:58:49.038Z,92.08
2017-09-19T23:01:16.651Z,91.89
2017-09-19T23:03:44.474Z,91.91
2017-09-19T23:06:12.095Z,92.01
2017-09-19T23:08:39.718Z,92.20
2017-09-19T23:11:07.406Z,92.43
2017-09-19T23:13:35.004Z,92.80
2017-09-19T23:16:02.646Z,93.10
2017-09-19T23:18:30.250Z,93.18
2017-09-19T23:20:57.880Z,93.16
2017-09-19T23:23:25.607Z,93.16
2017-09-19T23:25:53.242Z,93.23
2017-09-19T23:28:20.846Z,93.48
2017-09-19T23:30:48.478Z,93.56
2017-09-19T23:33:16.094Z,93.71
2017-09-19T23:35:43.713Z,93.88
2017-09-19T23:38:11.319Z,94.14
2017-09-19T23:40:39.114Z,94.41
2017-09-19T23:43:06.719Z,94.58
2017-09-19T23:45:34.348Z,94.74
2017-09-19T23:48:01.979Z,94.93
2017-09-19T23:50:29.609Z,95.03
2017-09-19T23:52:57.307Z,95.05
2017-09-19T23:55:24.930Z,94.96
2017-09-19T23:57:52.529Z,94.65
